Time;durP1;ratioP1;P1;durP2;ratioP2;P2;SDS_P1;SDS_P2;PMS_P1;PMS_P2;Temp;Humidity;BMP_temperature;BMP_pressure;BME280_temperature;BME280_humidity;BME280_pressure;Samples;Min_cycle;Max_cycle;Signal;HPM_P1;HPM_P2
2022/05/12 00:00:25;;;;;;;19.80;18.25;;;19.20;65.10;;;;;;4997627;28;20034;-80
2022/05/12 00:02:51;;;;;;;18.83;17.42;;;19.20;64.90;;;;;;5011195;28;20037;-80
2022/05/12 00:05:18;;;;;;;19.48;17.77;;;19.10;65.40;;;;;;4989519;28;20057;-80
2022/05/12 00:07:44;;;;;;;19.42;17.63;;;19.10;65.40;;;;;;4966650;28;20042;-80
2022/05/12 00:10:11;;;;;;;19.38;17.67;;;19.20;65.40;;;;;;5008376;28;20033;-80
2022/05/12 00:12:37;;;;;;;19.80;17.90;;;19.20;65.50;;;;;;5010801;28;20037;-80
2022/05/12 00:15:05;;;;;;;18.95;17.35;;;19.10;65.40;;;;;;4992621;28;20518;-80
2022/05/12 00:17:31;;;;;;;19.23;17.30;;;19.10;65.40;;;;;;5005277;28;20022;-80
2022/05/12 00:19:57;;;;;;;18.48;17.05;;;19.10;65.20;;;;;;5009116;28;20048;-80
2022/05/12 00:22:23;;;;;;;17.98;16.38;;;19.00;65.50;;;;;;5004641;28;20030;-80
2022/05/12 00:24:49;;;;;;;18.25;16.83;;;19.10;65.50;;;;;;5009045;28;20056;-80
2022/05/12 00:27:15;;;;;;;19.13;17.08;;;19.10;65.70;;;;;;4988908;28;20391;-80
2022/05/12 00:29:41;;;;;;;18.88;17.02;;;19.10;65.50;;;;;;4985438;28;20037;-80
2022/05/12 00:32:08;;;;;;;20.08;17.58;;;19.10;65.40;;;;;;5006582;28;20026;-80
2022/05/12 00:34:34;;;;;;;22.15;16.77;;;19.10;65.40;;;;;;5006220;28;20407;-80
2022/05/12 00:37:00;;;;;;;18.40;16.70;;;19.10;65.00;;;;;;5009181;28;20022;-80
2022/05/12 00:39:26;;;;;;;18.35;16.42;;;19.20;65.20;;;;;;5010524;28;20045;-80
2022/05/12 00:41:52;;;;;;;17.75;16.35;;;19.10;65.00;;;;;;5006826;28;20026;-80
2022/05/12 00:44:18;;;;;;;18.48;16.63;;;19.00;65.30;;;;;;5007916;28;20033;-80
2022/05/12 00:46:45;;;;;;;18.52;16.73;;;19.00;65.50;;;;;;5007950;28;20050;-80
2022/05/12 00:49:31;;;;;;;18.05;16.65;;;19.00;65.60;;;;;;5009119;28;20034;-80
2022/05/12 00:52:06;;;;;;;18.92;17.30;;;19.00;65.60;;;;;;4990726;28;20414;-80
2022/05/12 00:54:37;;;;;;;19.50;17.42;;;18.90;66.00;;;;;;4975835;28;20045;-80
2022/05/12 00:57:03;;;;;;;18.08;16.23;;;18.90;65.80;;;;;;5008542;28;20041;-80
2022/05/12 00:59:31;;;;;;;18.88;17.27;;;18.90;65.70;;;;;;5008276;28;20033;-80
2022/05/12 01:01:57;;;;;;;18.77;17.02;;;19.00;65.80;;;;;;4989748;28;20050;-80
2022/05/12 01:04:23;;;;;;;18.92;16.88;;;18.90;66.20;;;;;;5008866;28;20042;-80
2022/05/12 01:06:51;;;;;;;21.38;16.05;;;18.80;66.20;;;;;;5025075;28;20045;-80
2022/05/12 01:09:20;;;;;;;21.15;16.65;;;18.70;66.40;;;;;;5009603;28;20026;-80
2022/05/12 01:11:48;;;;;;;17.65;15.70;;;18.80;66.30;;;;;;5009496;28;20042;-80
2022/05/12 01:14:14;;;;;;;17.40;15.90;;;18.80;66.20;;;;;;5006402;28;20396;-80
2022/05/12 01:16:43;;;;;;;18.05;15.60;;;18.80;66.40;;;;;;5011735;28;20052;-80
2022/05/12 01:19:20;;;;;;;18.67;15.40;;;18.70;66.70;;;;;;5010773;28;20081;-80
2022/05/12 01:21:47;;;;;;;20.48;16.35;;;18.50;67.30;;;;;;5026455;28;20089;-80
2022/05/12 01:24:13;;;;;;;17.40;15.40;;;18.50;67.70;;;;;;5026209;28;20048;-80
2022/05/12 01:26:40;;;;;;;17.55;15.77;;;18.50;67.50;;;;;;5028016;28;20052;-80
2022/05/12 01:29:06;;;;;;;24.52;15.32;;;18.50;67.30;;;;;;5028908;28;20026;-80
2022/05/12 01:31:32;;;;;;;17.83;15.32;;;18.40;67.50;;;;;;5030648;28;20417;-80
2022/05/12 01:33:58;;;;;;;19.42;15.63;;;18.30;67.90;;;;;;5031161;28;20037;-80
2022/05/12 01:36:24;;;;;;;18.42;15.98;;;18.30;67.70;;;;;;5032248;28;20026;-80
2022/05/12 01:38:51;;;;;;;17.38;15.68;;;18.30;67.40;;;;;;5031795;28;20059;-80
2022/05/12 01:41:17;;;;;;;28.48;16.05;;;18.30;67.60;;;;;;5030160;28;20040;-80
2022/05/12 01:43:43;;;;;;;20.33;15.55;;;18.30;67.90;;;;;;5027711;28;20037;-80
2022/05/12 01:46:09;;;;;;;23.38;15.55;;;18.20;68.40;;;;;;5030003;28;20061;-80
2022/05/12 01:48:35;;;;;;;20.45;16.05;;;18.10;68.00;;;;;;5033056;28;20394;-80
2022/05/12 01:51:02;;;;;;;16.95;14.70;;;18.20;67.70;;;;;;5013950;28;20380;-80
2022/05/12 01:53:30;;;;;;;17.55;15.57;;;18.20;67.50;;;;;;5015749;28;20033;-80
2022/05/12 01:55:57;;;;;;;17.27;15.45;;;18.30;67.00;;;;;;5025149;28;20044;-80
2022/05/12 01:58:23;;;;;;;20.92;15.48;;;18.30;66.80;;;;;;5028330;28;20030;-80
2022/05/12 02:00:49;;;;;;;18.40;16.23;;;18.30;66.50;;;;;;5028813;28;20037;-80
2022/05/12 02:03:15;;;;;;;20.08;15.27;;;18.30;66.60;;;;;;5029074;28;20383;-80
2022/05/12 02:05:42;;;;;;;16.17;14.98;;;18.30;66.40;;;;;;5029372;28;20049;-80
2022/05/12 02:08:09;;;;;;;17.67;15.15;;;18.30;66.20;;;;;;5017728;28;20030;-80
2022/05/12 02:10:38;;;;;;;16.23;14.63;;;18.30;66.10;;;;;;5017728;28;20037;-81
2022/05/12 02:13:08;;;;;;;17.35;14.40;;;18.30;66.00;;;;;;5028944;28;20033;-80
2022/05/12 02:15:35;;;;;;;21.00;14.75;;;18.30;65.70;;;;;;5026284;28;20033;-80
2022/05/12 02:18:02;;;;;;;16.60;14.85;;;18.30;65.60;;;;;;5025582;28;20037;-80
2022/05/12 02:20:28;;;;;;;16.58;14.93;;;18.30;65.50;;;;;;5031212;28;20040;-80
2022/05/12 02:22:54;;;;;;;20.25;14.20;;;18.20;66.40;;;;;;5029485;28;20029;-80
2022/05/12 02:25:20;;;;;;;19.35;14.13;;;18.10;66.50;;;;;;5043952;28;20033;-80
2022/05/12 02:27:47;;;;;;;16.85;15.15;;;18.10;65.90;;;;;;5031854;28;20030;-80
2022/05/12 02:30:21;;;;;;;19.55;14.57;;;18.10;65.70;;;;;;5032570;28;20026;-80
2022/05/12 02:32:47;;;;;;;15.27;13.73;;;18.10;66.00;;;;;;5024863;28;20029;-80
2022/05/12 02:35:14;;;;;;;15.85;13.57;;;17.80;66.00;;;;;;5031244;28;20033;-80
2022/05/12 02:37:40;;;;;;;14.68;13.32;;;17.70;65.90;;;;;;5010376;28;20049;-80
2022/05/12 02:40:07;;;;;;;17.67;13.43;;;17.60;65.90;;;;;;5029666;28;20161;-80
2022/05/12 02:42:33;;;;;;;14.30;12.82;;;17.60;65.80;;;;;;5029916;28;20036;-80
2022/05/12 02:44:59;;;;;;;13.63;12.38;;;17.40;65.70;;;;;;5031069;28;20453;-80
2022/05/12 02:47:25;;;;;;;13.70;12.45;;;17.30;66.10;;;;;;5029782;28;20045;-80
2022/05/12 02:49:51;;;;;;;12.85;11.65;;;17.30;65.90;;;;;;5030683;28;20064;-80
2022/05/12 02:52:17;;;;;;;13.50;12.13;;;17.30;65.80;;;;;;5042688;28;20045;-80
2022/05/12 02:54:43;;;;;;;13.55;12.25;;;17.40;65.50;;;;;;5030682;28;20021;-80
2022/05/12 02:57:10;;;;;;;13.40;11.98;;;17.40;65.40;;;;;;5011257;28;20033;-80
2022/05/12 02:59:37;;;;;;;13.07;11.75;;;17.40;64.50;;;;;;5030029;28;20501;-80
2022/05/12 03:02:03;;;;;;;18.67;12.23;;;17.10;64.40;;;;;;5027542;28;20033;-80
2022/05/12 03:04:30;;;;;;;12.68;11.13;;;16.80;64.50;;;;;;5013716;28;20041;-80
2022/05/12 03:06:56;;;;;;;13.05;11.43;;;16.70;65.70;;;;;;5028486;28;20048;-80
2022/05/12 03:09:22;;;;;;;14.40;11.20;;;16.50;65.30;;;;;;5030350;28;20033;-79
2022/05/12 03:11:48;;;;;;;12.10;11.00;;;16.40;65.20;;;;;;5028439;28;20033;-80
2022/05/12 03:14:14;;;;;;;13.27;10.85;;;16.20;65.40;;;;;;5030409;28;20363;-80
2022/05/12 03:16:40;;;;;;;12.00;10.80;;;16.00;65.60;;;;;;5028091;28;20041;-80
2022/05/12 03:19:06;;;;;;;12.20;11.10;;;15.90;66.10;;;;;;5029019;28;20041;-78
2022/05/12 03:21:32;;;;;;;13.80;10.80;;;15.80;66.30;;;;;;5040570;28;20029;-80
2022/05/12 03:23:59;;;;;;;13.52;10.52;;;15.60;66.60;;;;;;5012796;28;20045;-76
2022/05/12 03:26:25;;;;;;;11.38;10.27;;;15.60;66.70;;;;;;5025722;28;20406;-76
2022/05/12 03:28:51;;;;;;;11.93;10.20;;;15.70;66.40;;;;;;5029966;28;20040;-75
2022/05/12 03:31:18;;;;;;;15.68;10.20;;;15.70;66.30;;;;;;5029988;28;20045;-77
2022/05/12 03:33:46;;;;;;;11.75;10.20;;;15.70;66.20;;;;;;5016021;28;20048;-76
2022/05/12 03:36:12;;;;;;;12.70;10.13;;;15.70;66.30;;;;;;5048276;28;20045;-76
2022/05/12 03:38:38;;;;;;;13.43;10.57;;;15.70;66.80;;;;;;5026624;28;20033;-76
2022/05/12 03:41:05;;;;;;;12.18;10.18;;;15.70;66.30;;;;;;5029638;28;20060;-76
2022/05/12 03:46:16;;;;;;;12.35;11.00;;;15.70;66.60;;;;;;5027311;28;20044;-76
2022/05/12 03:48:43;;;;;;;14.20;10.70;;;15.80;66.40;;;;;;5029669;28;20036;-76
2022/05/12 03:51:09;;;;;;;13.35;10.25;;;15.60;67.00;;;;;;5029174;28;20049;-76
2022/05/12 03:53:35;;;;;;;12.68;10.35;;;15.60;67.50;;;;;;5029741;28;20021;-76
2022/05/12 03:56:02;;;;;;;16.10;10.52;;;15.60;67.30;;;;;;5030335;28;20037;-77
2022/05/12 03:58:28;;;;;;;12.52;10.82;;;15.70;67.00;;;;;;5024576;28;20021;-78
2022/05/12 04:00:54;;;;;;;13.18;10.27;;;15.90;66.50;;;;;;5011091;28;20151;-78
2022/05/12 04:03:21;;;;;;;11.23;10.30;;;16.00;66.00;;;;;;5029758;28;20036;-78
2022/05/12 04:05:47;;;;;;;14.30;10.90;;;15.90;66.50;;;;;;5028121;28;20038;-78
2022/05/12 04:08:13;;;;;;;13.25;10.50;;;15.80;66.40;;;;;;5026046;28;20033;-78
2022/05/12 04:10:39;;;;;;;14.45;10.05;;;15.80;67.10;;;;;;5045198;28;20048;-78
2022/05/12 04:13:05;;;;;;;11.68;10.18;;;15.60;67.50;;;;;;5028103;28;20475;-77
2022/05/12 04:15:31;;;;;;;12.80;10.23;;;15.40;68.30;;;;;;5031009;28;20044;-78
2022/05/12 04:17:59;;;;;;;11.57;10.20;;;15.40;68.80;;;;;;5029559;28;20025;-77
2022/05/12 04:20:29;;;;;;;13.82;10.20;;;15.30;68.90;;;;;;5024939;28;20037;-77
2022/05/12 04:22:56;;;;;;;10.93;9.88;;;15.20;69.50;;;;;;5026128;28;20025;-77
2022/05/12 04:25:22;;;;;;;12.13;9.70;;;15.30;69.30;;;;;;5029517;28;20390;-77
2022/05/12 04:27:48;;;;;;;11.15;9.55;;;15.20;69.70;;;;;;5033081;28;20048;-77
2022/05/12 04:30:15;;;;;;;17.70;10.18;;;15.20;70.10;;;;;;5059858;28;20034;-77
2022/05/12 04:32:41;;;;;;;13.30;10.00;;;15.20;70.10;;;;;;5027355;28;20030;-77
2022/05/12 04:35:11;;;;;;;13.45;9.93;;;15.20;70.40;;;;;;5028562;28;20040;-77
2022/05/12 04:37:37;;;;;;;11.40;9.60;;;15.20;70.30;;;;;;5028473;28;20032;-77
2022/05/12 04:40:06;;;;;;;11.48;9.82;;;15.20;70.30;;;;;;5012117;28;20056;-77
2022/05/12 04:42:32;;;;;;;11.32;10.10;;;15.30;70.20;;;;;;5030690;28;20030;-77
2022/05/12 04:44:58;;;;;;;14.23;10.10;;;15.20;70.50;;;;;;5011470;28;20395;-78
2022/05/12 04:47:24;;;;;;;13.48;10.00;;;15.20;70.60;;;;;;5009483;28;20046;-77
2022/05/12 04:49:50;;;;;;;12.45;9.75;;;15.20;71.40;;;;;;5019897;28;20386;-78
2022/05/12 04:52:17;;;;;;;10.73;9.63;;;15.20;70.70;;;;;;5027907;28;20057;-77
2022/05/12 04:54:43;;;;;;;13.00;10.20;;;15.20;70.30;;;;;;5029654;28;20386;-77
2022/05/12 04:57:09;;;;;;;12.68;10.02;;;15.20;70.50;;;;;;5030321;28;20025;-78
2022/05/12 04:59:35;;;;;;;13.50;9.93;;;15.30;70.60;;;;;;5028891;28;20394;-78
2022/05/12 05:02:01;;;;;;;13.18;9.77;;;15.20;70.50;;;;;;5029112;28;20041;-77
2022/05/12 05:04:27;;;;;;;16.25;11.52;;;15.10;71.60;;;;;;5031900;28;20037;-79
2022/05/12 05:06:53;;;;;;;12.07;9.90;;;15.10;71.10;;;;;;5014370;28;20061;-77
2022/05/12 05:09:19;;;;;;;18.67;10.38;;;15.00;71.30;;;;;;5034288;28;20033;-77
2022/05/12 05:11:46;;;;;;;16.58;10.20;;;14.90;71.80;;;;;;5063435;28;20044;-78
2022/05/12 05:14:12;;;;;;;15.02;9.82;;;15.00;71.80;;;;;;5031756;28;20028;-77
2022/05/12 05:16:38;;;;;;;19.45;10.00;;;15.00;71.30;;;;;;5015024;28;20471;-77
2022/05/12 05:19:04;;;;;;;19.73;10.70;;;15.20;71.20;;;;;;5014935;28;20048;-77
2022/05/12 05:21:31;;;;;;;17.23;10.20;;;15.20;71.00;;;;;;5033041;28;20033;-77
2022/05/12 05:23:57;;;;;;;17.83;10.82;;;15.20;70.80;;;;;;5031833;28;20044;-78
2022/05/12 05:26:23;;;;;;;13.85;9.95;;;15.20;70.90;;;;;;5031801;28;20043;-78
2022/05/12 05:28:49;;;;;;;12.60;10.10;;;15.20;71.00;;;;;;5035214;28;20060;-77
2022/05/12 05:31:15;;;;;;;16.08;9.77;;;15.10;70.60;;;;;;5062393;28;20041;-78
2022/05/12 05:33:41;;;;;;;23.48;10.20;;;15.00;71.20;;;;;;5032706;28;20052;-77
2022/05/12 05:36:07;;;;;;;20.25;10.40;;;15.00;71.60;;;;;;5031927;28;20045;-77
2022/05/12 05:38:33;;;;;;;13.02;9.48;;;15.00;71.10;;;;;;5031035;28;20390;-77
2022/05/12 05:40:59;;;;;;;18.67;10.18;;;15.10;71.20;;;;;;5030648;28;20387;-78
2022/05/12 05:43:26;;;;;;;14.68;10.20;;;15.20;70.60;;;;;;5013261;28;20032;-78
2022/05/12 05:45:53;;;;;;;18.77;10.43;;;15.20;70.90;;;;;;5030192;28;20044;-78
2022/05/12 05:48:19;;;;;;;19.55;10.38;;;15.40;70.40;;;;;;5045940;28;20037;-77
2022/05/12 05:53:33;;;;;;;16.92;10.75;;;15.60;69.90;;;;;;5031706;28;20041;-76
2022/05/12 05:56:00;;;;;;;19.77;10.50;;;15.70;69.60;;;;;;5031046;28;20056;-76
2022/05/12 05:58:26;;;;;;;18.25;10.15;;;15.60;69.30;;;;;;5030538;28;20029;-78
2022/05/12 06:00:54;;;;;;;19.08;10.82;;;15.40;69.70;;;;;;5013898;28;20038;-75
2022/05/12 06:03:20;;;;;;;20.70;10.65;;;15.40;70.30;;;;;;5043373;28;20021;-75
2022/05/12 06:05:46;;;;;;;17.05;10.55;;;15.50;70.10;;;;;;5047245;28;20036;-75
2022/05/12 06:08:14;;;;;;;18.02;10.73;;;15.60;70.00;;;;;;5030471;28;20037;-76
2022/05/12 06:10:42;;;;;;;17.13;10.15;;;15.70;68.40;;;;;;5029460;28;20030;-79
2022/05/12 06:13:08;;;;;;;20.15;9.93;;;15.50;69.70;;;;;;5018166;28;20030;-76
2022/05/12 06:15:35;;;;;;;22.33;10.93;;;15.50;69.80;;;;;;5030559;28;20482;-76
2022/05/12 06:18:13;;;;;;;18.33;10.40;;;15.60;68.90;;;;;;5028724;28;20030;-78
2022/05/12 06:20:43;;;;;;;13.85;10.82;;;15.70;69.30;;;;;;5014073;28;20048;-77
2022/05/12 06:23:10;;;;;;;16.80;10.57;;;15.70;69.00;;;;;;5028201;28;20025;-77
2022/05/12 06:25:36;;;;;;;16.40;10.57;;;15.60;69.30;;;;;;5013288;28;20033;-83
2022/05/12 06:28:03;;;;;;;18.33;10.40;;;15.60;69.30;;;;;;5028029;28;20398;-80
2022/05/12 06:30:29;;;;;;;17.73;11.07;;;15.60;69.40;;;;;;5025049;28;20395;-77
2022/05/12 06:32:56;;;;;;;22.33;10.50;;;15.50;69.80;;;;;;5058033;28;20036;-78
2022/05/12 06:35:23;;;;;;;14.40;10.45;;;15.50;69.80;;;;;;5030453;28;20032;-78
2022/05/12 06:37:49;;;;;;;14.90;10.00;;;15.60;69.60;;;;;;5023829;28;20041;-77
2022/05/12 06:40:16;;;;;;;14.07;10.55;;;15.60;69.30;;;;;;5019492;28;20049;-76
2022/05/12 06:42:43;;;;;;;16.48;10.40;;;15.60;69.00;;;;;;5028973;28;20049;-83
2022/05/12 06:45:10;;;;;;;19.92;10.20;;;15.60;69.00;;;;;;5031289;28;20462;-83
2022/05/12 06:47:36;;;;;;;18.80;11.02;;;15.60;68.80;;;;;;5024086;28;20053;-77
2022/05/12 06:50:03;;;;;;;19.30;11.23;;;15.70;67.90;;;;;;5022610;28;20034;-77
2022/05/12 06:52:29;;;;;;;15.10;11.02;;;15.70;68.00;;;;;;5026618;28;20395;-78
2022/05/12 06:54:56;;;;;;;17.58;12.13;;;15.90;68.00;;;;;;4997161;28;20034;-79
2022/05/12 06:57:23;;;;;;;18.95;11.10;;;16.00;67.60;;;;;;5029611;28;20030;-77
2022/05/12 06:59:50;;;;;;;15.43;11.63;;;16.20;67.50;;;;;;5028489;28;20070;-78
2022/05/12 07:02:16;;;;;;;16.20;11.85;;;16.30;66.70;;;;;;5023461;28;20116;-78
2022/05/12 07:04:45;;;;;;;18.50;12.27;;;16.40;66.20;;;;;;5041911;28;20026;-76
2022/05/12 07:07:12;;;;;;;14.90;11.52;;;16.30;64.90;;;;;;5011691;28;20149;-77
2022/05/12 07:09:38;;;;;;;15.43;11.20;;;16.40;65.10;;;;;;5026900;28;20025;-76
2022/05/12 07:12:05;;;;;;;15.35;12.00;;;16.30;64.60;;;;;;5029136;28;20037;-78
2022/05/12 07:14:31;;;;;;;19.00;11.65;;;16.20;64.80;;;;;;5039441;28;20038;-76
2022/05/12 07:16:58;;;;;;;17.38;11.25;;;16.30;65.40;;;;;;5037168;28;20041;-77
2022/05/12 07:19:25;;;;;;;16.90;12.57;;;16.30;64.70;;;;;;5033926;28;20063;-79
2022/05/12 07:27:20;;;;;;;19.88;11.65;;;16.70;65.10;;;;;;5025346;28;20493;-81
2022/05/12 07:29:46;;;;;;;14.23;12.85;;;16.80;65.50;;;;;;5009071;28;20042;-79
2022/05/12 07:32:13;;;;;;;14.93;13.43;;;17.10;64.20;;;;;;5036240;28;20034;-81
2022/05/12 07:34:40;;;;;;;15.93;13.02;;;17.40;64.00;;;;;;5009636;28;20446;-81
2022/05/12 07:37:06;;;;;;;17.58;13.55;;;17.40;62.00;;;;;;5011137;28;20053;-81
2022/05/12 07:39:33;;;;;;;15.90;13.70;;;17.50;62.20;;;;;;5030524;28;20084;-81
2022/05/12 07:42:00;;;;;;;14.88;13.48;;;17.40;61.20;;;;;;5025561;28;20033;-81
2022/05/12 07:44:34;;;;;;;16.55;13.73;;;17.40;60.50;;;;;;5003512;28;20065;-81
2022/05/12 07:47:05;;;;;;;16.05;14.35;;;17.40;61.00;;;;;;5029799;28;20415;-81
2022/05/12 07:49:35;;;;;;;15.75;14.23;;;17.50;61.50;;;;;;5027077;28;20045;-81
2022/05/12 07:52:02;;;;;;;18.25;14.73;;;17.70;59.80;;;;;;5027904;28;20486;-81
2022/05/12 07:54:30;;;;;;;16.77;14.93;;;18.00;59.90;;;;;;5011022;28;20050;-81
2022/05/12 07:56:57;;;;;;;16.58;14.85;;;18.00;60.20;;;;;;5022217;28;20030;-81
2022/05/12 07:59:23;;;;;;;17.55;15.98;;;18.10;59.10;;;;;;5016287;28;20022;-81
2022/05/12 08:01:49;;;;;;;20.10;16.08;;;18.20;57.80;;;;;;5047753;28;20042;-82
2022/05/12 08:04:15;;;;;;;21.77;15.77;;;18.20;57.30;;;;;;5029897;28;20028;-82
2022/05/12 08:06:42;;;;;;;18.67;16.83;;;18.40;59.10;;;;;;5030257;28;20029;-82
2022/05/12 08:09:09;;;;;;;18.92;17.15;;;18.60;58.90;;;;;;5028771;28;20053;-84
2022/05/12 08:11:35;;;;;;;18.58;16.85;;;18.90;57.50;;;;;;5010215;28;20033;-85
2022/05/12 08:14:01;;;;;;;17.77;16.25;;;18.90;56.50;;;;;;5024616;28;20041;-83
2022/05/12 08:16:27;;;;;;;18.65;17.17;;;18.90;57.00;;;;;;5052862;28;20053;-84
2022/05/12 08:18:53;;;;;;;19.35;17.55;;;18.90;57.10;;;;;;5029127;28;20061;-86
2022/05/12 08:21:20;;;;;;;19.55;17.95;;;19.20;57.80;;;;;;5057558;28;20042;-85
2022/05/12 08:23:47;;;;;;;18.45;16.63;;;19.40;55.90;;;;;;5001165;28;20049;-87
2022/05/12 08:26:13;;;;;;;20.20;18.23;;;19.30;56.20;;;;;;5032896;28;20026;-81
2022/05/12 08:28:40;;;;;;;19.20;17.48;;;19.20;55.30;;;;;;5039000;28;20049;-79
2022/05/12 08:31:06;;;;;;;19.90;17.77;;;19.30;55.40;;;;;;5032919;28;25297;-80
2022/05/12 08:33:33;;;;;;;19.45;17.83;;;19.50;55.20;;;;;;5013555;28;20037;-80
2022/05/12 08:35:59;;;;;;;18.63;17.13;;;19.70;55.60;;;;;;5023636;28;20036;-77
2022/05/12 08:38:25;;;;;;;19.58;18.08;;;19.90;53.10;;;;;;5030093;28;20489;-86
2022/05/12 08:41:02;;;;;;;18.60;17.17;;;19.70;52.20;;;;;;5030445;28;20375;-84
2022/05/12 08:43:33;;;;;;;18.58;17.17;;;19.70;52.00;;;;;;5027751;28;20021;-79
2022/05/12 08:46:03;;;;;;;19.40;17.80;;;19.90;52.60;;;;;;5047132;28;20308;-79
2022/05/12 08:48:30;;;;;;;19.05;17.35;;;19.80;52.20;;;;;;5037575;28;20037;-79
2022/05/12 08:50:56;;;;;;;18.58;17.15;;;19.80;53.20;;;;;;5011216;28;20030;-80
2022/05/12 08:53:25;;;;;;;18.85;17.30;;;19.80;52.70;;;;;;5027423;28;20041;-81
2022/05/12 08:55:53;;;;;;;18.25;16.70;;;19.60;52.80;;;;;;5041883;28;20429;-77
2022/05/12 08:58:32;;;;;;;18.00;16.63;;;19.70;53.10;;;;;;5030619;28;20022;-79
2022/05/12 09:01:00;;;;;;;18.38;16.55;;;19.60;53.20;;;;;;5012571;28;20033;-79
2022/05/12 09:04:04;;;;;;;19.65;17.92;;;19.50;53.30;;;;;;5028247;28;20397;-80
2022/05/12 09:06:39;;;;;;;19.48;17.80;;;19.70;53.70;;;;;;5034592;28;20379;-78
2022/05/12 09:09:31;;;;;;;20.98;19.33;;;20.00;53.50;;;;;;5026546;28;20033;-79
2022/05/12 09:12:10;;;;;;;18.60;17.08;;;20.30;52.70;;;;;;5029250;28;20029;-79
2022/05/12 09:14:56;;;;;;;20.05;18.58;;;20.40;52.70;;;;;;5025988;28;20037;-79
2022/05/12 09:17:29;;;;;;;21.08;19.38;;;20.70;52.90;;;;;;5029613;28;20044;-78
2022/05/12 09:19:55;;;;;;;21.42;19.40;;;20.80;50.80;;;;;;5024879;28;20029;-77
2022/05/12 09:22:25;;;;;;;21.00;18.92;;;20.60;50.70;;;;;;5046723;28;20368;-78
2022/05/12 09:24:52;;;;;;;19.75;18.25;;;20.40;50.60;;;;;;5015523;28;20038;-84
2022/05/12 09:27:18;;;;;;;20.25;18.83;;;20.30;51.00;;;;;;5025218;28;20045;-83
2022/05/12 09:29:48;;;;;;;19.50;17.92;;;20.50;50.60;;;;;;5018319;28;20045;-83
2022/05/12 09:32:20;;;;;;;19.60;18.10;;;20.60;50.40;;;;;;5012850;28;20030;-79
2022/05/12 09:35:01;;;;;;;19.27;17.85;;;20.40;50.30;;;;;;5012798;28;20053;-79
2022/05/12 09:37:28;;;;;;;20.02;18.45;;;20.60;49.60;;;;;;5044830;28;20052;-79
2022/05/12 09:39:55;;;;;;;21.17;19.40;;;20.80;49.40;;;;;;5059112;28;20033;-81
2022/05/12 09:42:28;;;;;;;25.25;20.20;;;20.90;48.90;;;;;;5014554;28;20081;-82
2022/05/12 09:44:55;;;;;;;20.70;18.90;;;20.90;49.30;;;;;;5028556;28;20046;-78
2022/05/12 09:47:21;;;;;;;20.63;19.00;;;21.10;49.20;;;;;;5019005;28;20030;-79
2022/05/12 09:49:47;;;;;;;27.02;24.45;;;21.40;48.40;;;;;;5025415;28;20346;-79
2022/05/12 09:52:39;;;;;;;22.95;21.05;;;21.50;48.90;;;;;;5042846;28;20038;-80
2022/05/12 09:55:20;;;;;;;21.02;19.27;;;21.60;47.60;;;;;;5025024;28;20032;-84
2022/05/12 09:57:50;;;;;;;20.73;19.00;;;21.80;47.50;;;;;;5028602;28;20033;-84
2022/05/12 10:00:38;;;;;;;20.75;19.30;;;21.80;47.50;;;;;;5043896;28;20387;-85
2022/05/12 10:09:28;;;;;;;22.02;19.90;;;22.30;47.60;;;;;;5031972;28;20056;-82
2022/05/12 10:12:06;;;;;;;20.23;18.83;;;22.10;46.10;;;;;;5004694;28;20031;-80
2022/05/12 10:14:54;;;;;;;20.70;18.73;;;21.70;47.00;;;;;;4984797;28;20045;-80
2022/05/12 10:17:38;;;;;;;20.40;18.95;;;21.70;48.60;;;;;;5009160;28;20069;-81
2022/05/12 10:20:32;;;;;;;21.58;19.77;;;22.10;48.70;;;;;;4993587;28;20122;-82
2022/05/12 10:23:19;;;;;;;21.77;20.27;;;22.50;47.80;;;;;;5007271;28;20403;-80
2022/05/12 10:26:00;;;;;;;22.88;21.13;;;22.90;47.90;;;;;;5011056;28;20057;-80
2022/05/12 10:29:04;;;;;;;23.13;21.42;;;23.00;45.10;;;;;;5014273;28;20054;-79
2022/05/12 10:32:03;;;;;;;22.40;20.67;;;23.00;46.20;;;;;;4999850;28;20038;-85
2022/05/12 10:34:48;;;;;;;21.38;19.98;;;22.90;44.90;;;;;;4992855;28;20604;-80
2022/05/12 10:37:33;;;;;;;22.33;20.58;;;22.70;46.10;;;;;;5006784;28;20037;-81
2022/05/12 10:40:26;;;;;;;23.25;21.15;;;22.90;46.40;;;;;;4989935;28;20030;-82
2022/05/12 10:43:01;;;;;;;22.02;20.20;;;22.90;44.80;;;;;;4995153;28;20145;-84
2022/05/12 10:45:40;;;;;;;21.60;19.80;;;22.70;46.20;;;;;;4992033;28;20049;-87
2022/05/12 10:48:22;;;;;;;21.27;19.67;;;22.30;45.50;;;;;;5032362;28;20053;-86
2022/05/12 10:51:08;;;;;;;20.95;19.45;;;21.90;47.20;;;;;;5028690;28;20037;-87
2022/05/12 10:53:43;;;;;;;21.88;19.73;;;21.60;48.00;;;;;;5025196;28;20401;-87
2022/05/12 10:56:15;;;;;;;21.25;19.00;;;21.50;47.80;;;;;;5027863;28;20041;-85
2022/05/12 10:59:00;;;;;;;20.95;19.10;;;21.60;48.40;;;;;;5027442;28;20037;-88
2022/05/12 11:01:50;;;;;;;23.13;21.30;;;21.60;49.40;;;;;;5027041;28;20060;-93
2022/05/12 11:04:24;;;;;;;21.80;19.90;;;21.70;53.00;;;;;;5019842;28;20068;-90
2022/05/12 11:07:10;;;;;;;21.15;19.58;;;21.90;52.30;;;;;;5011266;28;20022;-88
2022/05/12 11:09:39;;;;;;;20.98;19.35;;;22.00;47.50;;;;;;5058029;28;20041;-87
2022/05/12 11:12:17;;;;;;;21.10;19.20;;;21.80;49.30;;;;;;5021182;28;20052;-89
2022/05/12 11:14:55;;;;;;;21.10;19.20;;;21.90;48.80;;;;;;5023259;28;20048;-86
2022/05/12 11:17:30;;;;;;;20.45;18.73;;;21.80;47.90;;;;;;5028235;28;20036;-91
2022/05/12 11:20:09;;;;;;;19.77;18.08;;;21.60;48.60;;;;;;5029370;28;20040;-87
2022/05/12 11:22:44;;;;;;;20.33;18.75;;;21.50;47.80;;;;;;5012021;28;20410;-84
2022/05/12 11:25:22;;;;;;;20.38;18.75;;;21.60;47.90;;;;;;5013745;28;20030;-83
2022/05/12 11:31:29;;;;;;;19.95;17.90;;;21.10;48.70;;;;;;4989836;28;20061;-85
2022/05/12 11:33:58;;;;;;;20.10;18.42;;;21.20;49.00;;;;;;4995693;28;20578;-88
2022/05/12 11:36:40;;;;;;;20.27;18.20;;;21.20;49.60;;;;;;5004715;28;20403;-91
2022/05/12 11:39:28;;;;;;;20.85;19.25;;;21.30;49.10;;;;;;5018792;28;20093;-87
2022/05/12 11:42:17;;;;;;;20.30;18.92;;;21.20;49.20;;;;;;4962805;28;20042;-84
2022/05/12 11:45:08;;;;;;;20.25;18.55;;;21.30;48.80;;;;;;4958557;28;20050;-82
2022/05/12 11:47:56;;;;;;;20.45;18.42;;;21.40;48.10;;;;;;4985650;28;20523;-82
2022/05/12 11:50:26;;;;;;;20.20;18.42;;;21.40;48.30;;;;;;4986800;28;20061;-82
2022/05/12 11:53:24;;;;;;;20.70;18.45;;;21.40;47.50;;;;;;4990200;28;20045;-82
2022/05/12 11:56:01;;;;;;;20.05;18.40;;;21.70;49.30;;;;;;4990348;28;20041;-82
2022/05/12 11:58:40;;;;;;;20.02;18.52;;;22.10;48.90;;;;;;4972493;28;20067;-82
2022/05/12 12:01:27;;;;;;;21.02;19.13;;;22.40;47.20;;;;;;4987967;28;20035;-82
2022/05/12 12:03:55;;;;;;;20.83;19.33;;;22.50;48.10;;;;;;4978495;28;20403;-82
2022/05/12 12:06:50;;;;;;;21.77;20.13;;;22.80;47.20;;;;;;4987051;28;20546;-82
2022/05/12 12:09:37;;;;;;;22.25;20.33;;;23.00;46.70;;;;;;5063052;28;20045;-82
2022/05/12 12:12:05;;;;;;;21.67;20.08;;;23.20;46.60;;;;;;5028261;28;20044;-82
2022/05/12 12:14:46;;;;;;;22.38;20.20;;;23.00;43.50;;;;;;5011139;28;20022;-82
2022/05/12 12:17:32;;;;;;;22.33;20.83;;;22.90;45.90;;;;;;5028074;28;20080;-82
2022/05/12 12:20:08;;;;;;;21.13;19.63;;;22.80;44.60;;;;;;5027273;28;20029;-82
2022/05/12 12:22:35;;;;;;;21.25;19.63;;;22.70;45.50;;;;;;5027776;28;20478;-82
2022/05/12 12:25:16;;;;;;;21.35;19.75;;;22.90;45.80;;;;;;5029564;28;20387;-82
2022/05/12 12:27:50;;;;;;;23.33;21.42;;;23.10;46.70;;;;;;5030022;28;20033;-82
2022/05/12 12:30:31;;;;;;;22.60;21.15;;;23.20;43.90;;;;;;5009236;28;20041;-82
2022/05/12 12:33:09;;;;;;;;;;;23.00;44.70;;;;;;5028241;28;20111;-82
2022/05/12 12:36:03;;;;;;;21.20;19.65;;;22.90;43.80;;;;;;5027331;28;19909;-81
2022/05/12 12:38:44;;;;;;;21.45;20.05;;;23.10;43.40;;;;;;5023421;28;20032;-82
2022/05/12 12:41:11;;;;;;;;;;;23.20;43.00;;;;;;5027696;28;20045;-81
2022/05/12 12:43:39;;;;;;;20.92;19.63;;;23.20;43.30;;;;;;5060628;28;19909;-81
2022/05/12 12:46:15;;;;;;;22.02;20.20;;;23.10;44.30;;;;;;5027715;28;20034;-82
2022/05/12 12:48:45;;;;;;;22.75;20.92;;;23.30;45.00;;;;;;5029992;28;20056;-82
2022/05/12 12:51:11;;;;;;;22.75;21.23;;;23.60;45.10;;;;;;5026050;28;20037;-82
2022/05/12 12:56:35;;;;;;;1999.90;999.90;;;24.10;43.90;;;;;;5028628;28;20025;-81
2022/05/12 12:59:24;;;;;;;1999.90;999.90;;;24.30;42.00;;;;;;5026864;28;20029;-82
2022/05/12 13:01:55;;;;;;;1999.90;999.90;;;24.40;44.20;;;;;;5026053;28;20517;-81
2022/05/12 13:04:27;;;;;;;1999.90;999.90;;;24.60;43.20;;;;;;5008540;28;20033;-80
2022/05/12 13:06:58;;;;;;;22.65;20.98;;;24.50;41.50;;;;;;5027291;28;20482;-81